Time;durP1;ratioP1;P1;durP2;ratioP2;P2;SDS_P1;SDS_P2;PMS_P1;PMS_P2;Temp;Humidity;BMP_temperature;BMP_pressure;BME280_temperature;BME280_humidity;BME280_pressure;Samples;Min_cycle;Max_cycle;Signal;HPM_P1;HPM_P2
2022/07/01 00:01:22;;;;;;;36.83;15.57;;;;;;;11.81;100.00;101374.56;6194770;23;20012;-84
2022/07/01 00:03:50;;;;;;;32.77;15.13;;;;;;;11.77;100.00;101390.44;6219978;23;20310;-84
2022/07/01 00:06:20;;;;;;;35.40;15.55;;;;;;;11.73;100.00;101383.75;6220064;23;20361;-85
2022/07/01 00:08:45;;;;;;;36.37;15.23;;;;;;;11.69;100.00;101376.22;6220099;23;20012;-84
2022/07/01 00:11:11;;;;;;;35.30;15.07;;;;;;;11.67;100.00;101378.31;6195646;23;20307;-84
2022/07/01 00:13:37;;;;;;;36.53;15.00;;;;;;;11.65;100.00;101369.53;6246116;23;20555;-84
2022/07/01 00:16:03;;;;;;;39.60;15.95;;;;;;;11.59;100.00;101366.63;6246227;23;20018;-84
2022/07/01 00:18:29;;;;;;;42.05;15.80;;;;;;;11.59;100.00;101365.78;6195491;23;20306;-84
2022/07/01 00:20:54;;;;;;;43.17;16.90;;;;;;;11.58;100.00;101362.22;6246610;23;20000;-84
2022/07/01 00:23:20;;;;;;;46.70;16.67;;;;;;;11.62;100.00;101365.38;6194732;23;20008;-84
2022/07/01 00:25:45;;;;;;;44.55;17.25;;;;;;;11.64;100.00;101365.16;6219822;23;19996;-84
2022/07/01 00:28:11;;;;;;;43.87;16.17;;;;;;;11.64;100.00;101352.41;6219475;23;20054;-84
2022/07/01 00:30:37;;;;;;;44.55;17.15;;;;;;;11.65;100.00;101359.50;6219620;23;20004;-84
2022/07/01 00:33:03;;;;;;;42.97;17.00;;;;;;;11.67;100.00;101362.00;6170168;23;20319;-85
2022/07/01 00:35:29;;;;;;;48.55;17.17;;;;;;;11.67;100.00;101351.97;6194423;23;20023;-84
2022/07/01 00:37:55;;;;;;;50.15;17.52;;;;;;;11.68;100.00;101336.50;6195181;23;20304;-84
2022/07/01 00:40:20;;;;;;;49.87;17.10;;;;;;;11.69;100.00;101330.00;6219476;23;20342;-85
2022/07/01 00:42:46;;;;;;;49.40;17.80;;;;;;;11.70;100.00;101332.50;6246437;23;20004;-85
2022/07/01 00:45:12;;;;;;;46.93;17.97;;;;;;;11.69;100.00;101332.72;6219947;23;20314;-84
2022/07/01 00:47:39;;;;;;;48.40;17.25;;;;;;;11.68;100.00;101333.81;6194827;23;20027;-85
2022/07/01 00:50:07;;;;;;;49.80;19.35;;;;;;;11.67;100.00;101332.13;6194841;23;20012;-85
2022/07/01 00:52:33;;;;;;;48.10;17.70;;;;;;;11.70;100.00;101342.56;6219569;23;20004;-84
2022/07/01 00:55:04;;;;;;;43.15;16.90;;;;;;;11.71;100.00;101345.06;6219395;23;20008;-84
2022/07/01 00:57:31;;;;;;;43.25;17.17;;;;;;;11.74;100.00;101343.81;6219486;23;20004;-84
2022/07/01 00:59:57;;;;;;;45.35;16.95;;;;;;;11.74;100.00;101343.81;6247532;23;20536;-84
2022/07/01 01:02:22;;;;;;;42.17;17.93;;;;;;;11.77;100.00;101349.66;6196500;23;20040;-85
2022/07/01 01:04:48;;;;;;;47.10;18.35;;;;;;;11.78;100.00;101353.22;6221445;23;20004;-85
2022/07/01 01:07:13;;;;;;;49.00;17.80;;;;;;;11.80;100.00;101362.00;6222178;23;20374;-85
2022/07/01 01:09:39;;;;;;;46.60;17.10;;;;;;;11.85;100.00;101362.19;6196417;23;20506;-85
2022/07/01 01:12:05;;;;;;;46.47;17.95;;;;;;;11.90;100.00;101372.47;6221345;23;20095;-85
2022/07/01 01:14:43;;;;;;;56.80;18.70;;;;;;;11.91;100.00;101366.81;6221848;23;20011;-85
2022/07/01 01:17:08;;;;;;;50.90;18.83;;;;;;;11.93;100.00;101374.78;6197387;23;20015;-84
2022/07/01 01:19:34;;;;;;;50.70;18.53;;;;;;;11.93;100.00;101382.94;6196297;23;20012;-85
2022/07/01 01:21:59;;;;;;;50.23;18.27;;;;;;;11.95;100.00;101389.00;6221469;23;20696;-85
2022/07/01 01:24:25;;;;;;;50.20;18.87;;;;;;;11.99;100.00;101395.69;6196779;23;20008;-85
2022/07/01 01:26:50;;;;;;;54.13;20.40;;;;;;;12.01;100.00;101400.91;6221436;23;20062;-85
2022/07/01 01:29:16;;;;;;;47.87;19.27;;;;;;;12.01;100.00;101395.47;6196211;23;20004;-84
2022/07/01 01:31:41;;;;;;;55.08;19.55;;;;;;;12.06;100.00;101387.50;6248087;23;20055;-85
2022/07/01 01:34:07;;;;;;;52.40;19.73;;;;;;;12.09;100.00;101400.69;6221303;23;20023;-85
2022/07/01 01:36:34;;;;;;;47.80;18.90;;;;;;;12.11;100.00;101393.97;6220448;23;20016;-84
2022/07/01 01:39:03;;;;;;;51.83;18.67;;;;;;;12.11;100.00;101390.44;6196658;23;20326;-84
2022/07/01 01:41:29;;;;;;;48.22;19.77;;;;;;;12.11;100.00;101387.72;6196696;23;20015;-84
2022/07/01 01:43:54;;;;;;;55.23;20.47;;;;;;;12.13;100.00;101398.38;6221226;23;20331;-84
2022/07/01 01:46:19;;;;;;;54.30;20.97;;;;;;;12.13;100.00;101382.88;6247926;23;20058;-84
2022/07/01 01:48:45;;;;;;;47.63;20.17;;;;;;;12.12;100.00;101373.06;6196324;23;20360;-84
2022/07/01 01:51:10;;;;;;;52.55;19.85;;;;;;;12.11;100.00;101387.72;6196026;23;20015;-84
2022/07/01 01:53:35;;;;;;;51.53;19.73;;;;;;;12.10;100.00;101389.56;6195461;23;20012;-84
2022/07/01 01:56:02;;;;;;;51.07;20.47;;;;;;;12.14;100.00;101381.84;6220813;23;20020;-84
2022/07/01 01:58:27;;;;;;;53.67;20.58;;;;;;;12.16;100.00;101387.06;6221118;23;20004;-84
2022/07/01 02:00:53;;;;;;;50.53;20.63;;;;;;;12.16;100.00;101385.19;6196204;23;20430;-84
2022/07/01 02:03:18;;;;;;;55.20;21.63;;;;;;;12.16;100.00;101379.75;6196212;23;20315;-84
2022/07/01 02:05:43;;;;;;;48.43;20.40;;;;;;;12.16;100.00;101393.34;6247358;23;20012;-84
2022/07/01 02:08:09;;;;;;;51.73;21.10;;;;;;;12.18;100.00;101398.56;6195540;23;20011;-84
2022/07/01 02:10:34;;;;;;;54.23;21.37;;;;;;;12.18;100.00;101395.84;6196623;23;20008;-84
2022/07/01 02:13:00;;;;;;;51.83;20.50;;;;;;;12.19;100.00;101398.34;6196283;23;20012;-84
2022/07/01 02:15:25;;;;;;;53.33;20.40;;;;;;;12.16;100.00;101406.13;6196114;23;20385;-85
2022/07/01 02:17:51;;;;;;;48.50;20.37;;;;;;;12.15;100.00;101416.16;6220769;23;20334;-84
2022/07/01 02:20:16;;;;;;;49.63;19.73;;;;;;;12.14;100.00;101419.09;6170687;23;20055;-85
2022/07/01 02:22:42;;;;;;;48.27;19.87;;;;;;;12.13;100.00;101417.41;6196355;23;20012;-85
2022/07/01 02:25:09;;;;;;;45.93;19.37;;;;;;;12.10;100.00;101435.81;6195684;23;20461;-85
2022/07/01 02:27:34;;;;;;;49.20;20.65;;;;;;;12.09;100.00;101431.44;6220979;23;20008;-84
2022/07/01 02:30:05;;;;;;;48.43;19.80;;;;;;;12.09;100.00;101436.88;6247517;23;20004;-85
2022/07/01 02:32:31;;;;;;;44.63;19.40;;;;;;;12.10;100.00;101433.09;6220957;23;20338;-85
2022/07/01 02:34:56;;;;;;;48.77;19.90;;;;;;;12.08;100.00;101399.84;6195590;23;20004;-85
2022/07/01 02:37:21;;;;;;;49.63;21.33;;;;;;;12.06;100.00;101379.34;6195299;23;20021;-85
2022/07/01 02:39:47;;;;;;;47.83;19.23;;;;;;;12.10;100.00;101377.88;6221036;23;20263;-85
2022/07/01 02:42:27;;;;;;;44.40;19.67;;;;;;;12.08;100.00;101388.97;6195312;23;20099;-85
2022/07/01 02:44:54;;;;;;;46.03;18.92;;;;;;;12.07;100.00;101400.88;6197626;23;20019;-85
2022/07/01 02:47:23;;;;;;;46.90;18.57;;;;;;;12.09;100.00;101408.84;6196504;23;20016;-85
2022/07/01 02:49:51;;;;;;;46.13;18.63;;;;;;;12.08;100.00;101426.22;6195945;23;20016;-85
2022/07/01 02:52:17;;;;;;;41.13;18.63;;;;;;;12.08;100.00;101429.75;6195873;23;20394;-85
2022/07/01 02:54:42;;;;;;;50.40;19.40;;;;;;;12.10;100.00;101429.56;6195133;23;20008;-85
2022/07/01 02:57:08;;;;;;;44.88;19.10;;;;;;;12.10;100.00;101430.38;6221436;23;20008;-85
2022/07/01 02:59:34;;;;;;;50.47;20.55;;;;;;;12.14;100.00;101430.81;6247476;23;20381;-85
2022/07/01 03:01:59;;;;;;;46.07;20.60;;;;;;;12.11;100.00;101423.91;6195334;23;20008;-85
2022/07/01 03:04:24;;;;;;;47.30;19.43;;;;;;;12.13;100.00;101425.59;6195846;23;20012;-85
2022/07/01 03:06:50;;;;;;;51.30;21.07;;;;;;;12.09;100.00;101422.44;6195243;23;20083;-84
2022/07/01 03:09:15;;;;;;;61.93;24.03;;;;;;;12.05;100.00;101424.75;6220239;23;20018;-85
2022/07/01 03:11:41;;;;;;;57.90;22.70;;;;;;;12.07;100.00;101424.53;6246934;23;20011;-85
2022/07/01 03:14:06;;;;;;;58.80;23.37;;;;;;;12.10;100.00;101424.94;6220161;23;20422;-85
2022/07/01 03:16:31;;;;;;;57.80;22.33;;;;;;;12.07;100.00;101430.81;6220323;23;20008;-84
2022/07/01 03:18:57;;;;;;;55.57;21.93;;;;;;;12.03;100.00;101436.88;6195324;23;20091;-84
2022/07/01 03:21:22;;;;;;;58.53;22.33;;;;;;;12.03;100.00;101428.72;6194985;23;20342;-84
2022/07/01 03:23:48;;;;;;;62.03;23.02;;;;;;;12.00;100.00;101423.72;6195320;23;20017;-84
2022/07/01 03:26:14;;;;;;;58.93;23.70;;;;;;;11.96;100.00;101426.03;6220293;23;20008;-85
2022/07/01 03:28:40;;;;;;;59.03;23.08;;;;;;;11.93;100.00;101432.72;6195881;23;20012;-85
2022/07/01 03:31:05;;;;;;;59.63;22.50;;;;;;;11.88;100.00;101432.47;6220010;23;20083;-85
2022/07/01 03:33:31;;;;;;;60.77;25.10;;;;;;;11.86;100.00;101431.03;6194430;23;20430;-85
2022/07/01 03:35:56;;;;;;;64.93;23.83;;;;;;;11.87;100.00;101443.53;6219767;23;20018;-85
2022/07/01 03:38:21;;;;;;;63.67;23.50;;;;;;;11.89;100.00;101464.06;6195004;23;20446;-85
2022/07/01 03:40:47;;;;;;;61.10;25.17;;;;;;;11.88;100.00;101470.53;6194790;23;20012;-85
2022/07/01 03:43:12;;;;;;;69.60;25.60;;;;;;;11.87;100.00;101466.16;6195593;23;20035;-84
2022/07/01 03:45:39;;;;;;;62.40;24.93;;;;;;;11.86;100.00;101475.34;6219786;23;20508;-85
2022/07/01 03:48:05;;;;;;;64.40;25.10;;;;;;;11.84;100.00;101468.44;6171012;23;20016;-85
2022/07/01 03:50:30;;;;;;;60.10;25.10;;;;;;;11.84;100.00;101471.16;6246421;23;20406;-84
2022/07/01 03:55:40;;;;;;;59.80;22.60;;;;;;;11.87;100.00;101485.19;6246493;23;20018;-85
2022/07/01 03:58:06;;;;;;;68.22;27.77;;;;;;;11.86;100.00;101491.66;6219925;23;20448;-85
2022/07/01 04:00:36;;;;;;;66.20;26.03;;;;;;;11.87;100.00;101490.63;6194803;23;20450;-85
2022/07/01 04:03:05;;;;;;;61.63;25.50;;;;;;;11.87;100.00;101498.78;6246221;23;20439;-85
2022/07/01 04:05:34;;;;;;;67.60;25.63;;;;;;;11.93;100.00;101503.41;6219716;23;20009;-85
2022/07/01 04:08:00;;;;;;;66.22;25.77;;;;;;;11.91;100.00;101491.88;6246901;23;20004;-85
2022/07/01 04:10:25;;;;;;;71.45;28.42;;;;;;;11.95;100.00;101510.53;6219935;23;20011;-85
2022/07/01 04:12:51;;;;;;;72.83;28.53;;;;;;;11.91;100.00;101497.31;6194722;23;20355;-85
2022/07/01 04:15:17;;;;;;;71.87;29.30;;;;;;;11.90;100.00;101490.22;6194888;23;20335;-85
2022/07/01 04:17:43;;;;;;;71.88;28.40;;;;;;;11.89;100.00;101490.41;6220079;23;20037;-85
2022/07/01 04:20:08;;;;;;;67.27;27.00;;;;;;;11.89;100.00;101510.28;6246580;23;20015;-85
2022/07/01 04:22:37;;;;;;;63.67;25.53;;;;;;;11.89;100.00;101501.28;6220015;23;20709;-85
2022/07/01 04:25:04;;;;;;;61.47;24.60;;;;;;;11.89;100.00;101495.84;6195614;23;20008;-85
2022/07/01 04:27:30;;;;;;;60.75;24.58;;;;;;;11.94;100.00;101498.81;6246790;23;20433;-85
2022/07/01 04:29:56;;;;;;;52.47;23.52;;;;;;;11.95;100.00;101486.88;6219611;23;20086;-85
2022/07/01 04:32:22;;;;;;;49.37;20.37;;;;;;;11.97;100.00;101492.13;6219593;23;20508;-85
2022/07/01 04:34:47;;;;;;;45.15;19.77;;;;;;;11.95;100.00;101499.66;6221648;23;20012;-86
2022/07/01 04:37:13;;;;;;;40.73;18.83;;;;;;;11.91;100.00;101493.75;6196293;23;20016;-83
2022/07/01 04:39:38;;;;;;;42.13;18.47;;;;;;;11.90;100.00;101501.09;6248480;23;20035;-83
2022/07/01 04:42:04;;;;;;;37.30;17.87;;;;;;;11.90;100.00;101506.53;6221601;23;20091;-83
2022/07/01 04:44:32;;;;;;;43.90;18.08;;;;;;;11.89;100.00;101504.00;6222269;23;20299;-83
2022/07/01 04:46:58;;;;;;;37.25;17.02;;;;;;;11.91;100.00;101502.78;6196722;23;20015;-83
2022/07/01 04:49:24;;;;;;;43.10;18.23;;;;;;;11.93;100.00;101508.03;6197150;23;20012;-83
2022/07/01 04:51:49;;;;;;;37.97;18.07;;;;;;;11.92;100.00;101504.41;6222585;23;20063;-83
2022/07/01 04:54:15;;;;;;;36.87;16.97;;;;;;;11.92;100.00;101498.97;6221583;23;20476;-83
2022/07/01 04:56:41;;;;;;;41.28;17.42;;;;;;;11.96;100.00;101502.16;6196520;23;20503;-83
2022/07/01 04:59:06;;;;;;;34.10;16.07;;;;;;;11.97;100.00;101498.38;6196815;23;20530;-83
2022/07/01 05:01:31;;;;;;;35.93;16.53;;;;;;;12.06;100.00;101497.16;6248339;23;20015;-84
2022/07/01 05:03:58;;;;;;;38.13;16.88;;;;;;;12.07;100.00;101508.84;6196759;23;20038;-83
2022/07/01 05:06:24;;;;;;;35.50;16.23;;;;;;;12.10;100.00;101497.56;6247709;23;20004;-83
2022/07/01 05:08:49;;;;;;;37.05;16.30;;;;;;;12.15;100.00;101507.81;6222377;23;20024;-83
2022/07/01 05:11:15;;;;;;;31.77;16.00;;;;;;;12.21;100.00;101523.28;6222045;23;20500;-84
2022/07/01 05:13:40;;;;;;;32.17;15.40;;;;;;;12.27;100.00;101526.00;6221218;23;20010;-84
2022/07/01 05:16:08;;;;;;;27.50;14.60;;;;;;;12.37;100.00;101511.13;6221007;23;20035;-84
2022/07/01 05:24:05;;;;;;;30.88;14.02;;;;;;;12.59;100.00;101515.31;6225167;23;20058;-85
2022/07/01 05:26:30;;;;;;;27.48;14.05;;;;;;;12.63;100.00;101524.69;6197146;23;20445;-83
2022/07/01 05:28:55;;;;;;;27.87;13.37;;;;;;;12.67;100.00;101519.69;6196064;23;20012;-83
2022/07/01 05:31:21;;;;;;;23.73;13.23;;;;;;;12.73;100.00;101518.81;6196091;23;20042;-83
2022/07/01 05:33:47;;;;;;;25.48;13.77;;;;;;;12.75;100.00;101516.72;6221142;23;20011;-82
2022/07/01 05:36:13;;;;;;;21.80;12.23;;;;;;;12.79;100.00;101517.13;6247203;23;20027;-83
2022/07/01 05:38:41;;;;;;;23.30;12.95;;;;;;;12.81;100.00;101512.31;6221399;23;20018;-82
2022/07/01 05:41:07;;;;;;;26.70;13.57;;;;;;;12.82;100.00;101516.72;6221597;23;20035;-85
2022/07/01 05:43:33;;;;;;;24.80;13.83;;;;;;;12.84;100.00;101519.22;6196020;23;20008;-86
2022/07/01 05:45:59;;;;;;;23.35;13.10;;;;;;;12.89;100.00;101513.94;6220629;23;20008;-83
2022/07/01 05:48:25;;;;;;;24.15;13.50;;;;;;;12.86;100.00;101511.66;6221103;23;20015;-82
2022/07/01 05:50:51;;;;;;;23.63;12.73;;;;;;;12.85;100.00;101518.19;6220818;23;20011;-81
2022/07/01 05:53:17;;;;;;;24.80;12.90;;;;;;;12.81;100.00;101515.88;6220789;23;20490;-83
2022/07/01 05:55:42;;;;;;;30.13;14.18;;;;;;;12.80;100.00;101518.81;6220985;23;20012;-83
2022/07/01 05:58:10;;;;;;;24.17;12.87;;;;;;;12.84;100.00;101525.47;6220727;23;20111;-84
2022/07/01 06:00:35;;;;;;;30.90;13.55;;;;;;;12.88;100.00;101526.75;6220453;23;20022;-82
2022/07/01 06:03:01;;;;;;;27.00;14.57;;;;;;;12.89;100.00;101519.41;6221190;23;20081;-83
2022/07/01 06:05:26;;;;;;;23.43;13.30;;;;;;;12.89;100.00;101513.94;6195662;23;20466;-83
2022/07/01 06:07:52;;;;;;;26.57;14.27;;;;;;;12.83;100.00;101507.50;6220697;23;20062;-83
2022/07/01 06:10:17;;;;;;;24.90;13.23;;;;;;;12.81;100.00;101521.31;6247445;23;20700;-83
2022/07/01 06:12:43;;;;;;;28.23;13.53;;;;;;;12.76;100.00;101517.56;6220686;23;20097;-83
2022/07/01 06:15:11;;;;;;;30.90;13.50;;;;;;;12.75;100.00;101529.50;6195154;23;20040;-83
2022/07/01 06:17:38;;;;;;;22.92;13.15;;;;;;;12.76;100.00;101532.00;6220412;23;20000;-87
2022/07/01 06:20:04;;;;;;;22.30;13.05;;;;;;;12.76;100.00;101525.72;6220258;23;20018;-83
2022/07/01 06:22:30;;;;;;;20.10;12.63;;;;;;;12.78;100.00;101527.19;6219518;23;20034;-83
2022/07/01 06:24:56;;;;;;;20.03;12.83;;;;;;;12.84;100.00;101530.09;6220891;23;20422;-83
2022/07/01 06:27:21;;;;;;;22.83;12.27;;;;;;;12.78;100.00;101519.03;6195207;23;20426;-83
2022/07/01 06:29:46;;;;;;;22.27;11.90;;;;;;;12.75;100.00;101530.31;6247210;23;20145;-82
2022/07/01 06:32:12;;;;;;;23.70;11.80;;;;;;;12.76;100.00;101526.56;6220338;23;20004;-82
2022/07/01 06:34:39;;;;;;;20.00;11.63;;;;;;;12.78;100.00;101521.75;6220438;23;20388;-82
2022/07/01 06:37:04;;;;;;;27.00;11.60;;;;;;;12.76;100.00;101517.56;6220611;23;20043;-82
2022/07/01 06:39:30;;;;;;;17.63;10.73;;;;;;;12.82;100.00;101519.44;6195419;23;20015;-82
2022/07/01 06:41:56;;;;;;;20.25;11.38;;;;;;;12.82;100.00;101517.53;6170380;23;20012;-83
2022/07/01 06:44:22;;;;;;;21.27;11.52;;;;;;;12.94;100.00;101519.59;6220373;23;20004;-83
2022/07/01 06:46:47;;;;;;;20.27;10.07;;;;;;;12.97;100.00;101521.91;6220183;23;20016;-83
2022/07/01 06:49:13;;;;;;;18.90;10.35;;;;;;;12.94;100.00;101514.16;6219571;23;20023;-83
2022/07/01 06:51:39;;;;;;;15.47;9.53;;;;;;;12.96;100.00;101510.19;6194344;23;20036;-83
2022/07/01 06:54:05;;;;;;;17.27;9.15;;;;;;;13.11;100.00;101511.78;6220036;23;20004;-83
2022/07/01 06:56:31;;;;;;;16.43;8.67;;;;;;;13.21;100.00;101514.03;6194702;23;20063;-83
2022/07/01 06:58:56;;;;;;;12.53;8.07;;;;;;;13.21;100.00;101509.41;6220217;23;20228;-82
2022/07/01 07:01:22;;;;;;;15.00;7.60;;;;;;;13.21;100.00;101516.78;6246860;23;20008;-84
2022/07/01 07:03:48;;;;;;;15.57;8.52;;;;;;;13.21;100.00;101516.78;6220216;23;20012;-83
2022/07/01 07:06:13;;;;;;;10.40;7.43;;;;;;;13.28;100.00;101520.31;6170144;23;20095;-83
2022/07/01 07:08:38;;;;;;;12.75;6.93;;;;;;;13.33;100.00;101515.03;6195000;23;20016;-83
2022/07/01 07:11:04;;;;;;;14.53;7.03;;;;;;;13.42;100.00;101527.41;6219993;23;20008;-83
2022/07/01 07:13:30;;;;;;;20.47;7.73;;;;;;;13.54;100.00;101535.72;6194935;23;20058;-83
2022/07/01 07:15:55;;;;;;;13.50;5.63;;;;;;;13.55;100.00;101552.91;6220031;23;20040;-84
2022/07/01 07:18:21;;;;;;;9.97;4.67;;;;;;;13.51;100.00;101552.50;6195998;23;20330;-83
2022/07/01 07:20:48;;;;;;;8.50;4.07;;;;;;;13.43;99.73;101550.84;6246745;23;20093;-83
2022/07/01 07:23:14;;;;;;;9.75;4.40;;;;;;;13.40;100.00;101548.56;6195325;23;20109;-83
2022/07/01 07:25:40;;;;;;;8.37;3.60;;;;;;;13.43;99.06;101548.13;6219806;23;20008;-83
2022/07/01 07:28:05;;;;;;;9.13;4.15;;;;;;;13.46;97.03;101542.28;6219799;23;20012;-84
2022/07/01 07:30:31;;;;;;;9.53;3.37;;;;;;;13.41;96.92;101544.78;6219431;23;20418;-86
2022/07/01 07:32:56;;;;;;;12.90;3.07;;;;;;;13.39;95.15;101537.88;6195166;23;20042;-86
2022/07/01 07:35:21;;;;;;;7.47;3.00;;;;;;;13.36;95.23;101541.91;6246484;23;20488;-86
2022/07/01 07:37:47;;;;;;;12.07;3.20;;;;;;;13.29;95.11;101541.06;6194553;23;20450;-87
2022/07/01 07:40:17;;;;;;;7.57;3.10;;;;;;;13.35;96.13;101545.66;6219931;23;20430;-87
2022/07/01 07:42:45;;;;;;;6.88;2.92;;;;;;;13.38;95.23;101547.97;6246666;23;20004;-88
2022/07/01 07:45:11;;;;;;;7.43;2.53;;;;;;;13.41;95.68;101566.59;6195682;23;20039;-88
2022/07/01 07:47:37;;;;;;;6.13;2.40;;;;;;;13.42;96.63;101546.47;6195395;23;20018;-87
2022/07/01 07:50:04;;;;;;;10.00;2.40;;;;;;;13.50;94.19;101542.66;6195000;23;20066;-87
2022/07/01 07:52:29;;;;;;;5.07;1.45;;;;;;;13.53;92.46;101555.03;6219448;23;20004;-88
2022/07/01 07:54:55;;;;;;;4.27;1.17;;;;;;;13.56;90.18;101570.94;6246510;23;20080;-86
2022/07/01 07:57:21;;;;;;;7.20;1.23;;;;;;;13.57;87.17;101586.22;6219895;23;20672;-86
2022/07/01 07:59:46;;;;;;;4.63;1.10;;;;;;;13.62;85.59;101573.63;6219939;23;20012;-87
2022/07/01 08:02:13;;;;;;;3.50;1.20;;;;;;;13.67;84.30;101556.59;6246804;23;20004;-86
2022/07/01 08:04:38;;;;;;;4.35;0.90;;;;;;;13.70;83.35;101569.81;6219265;23;20015;-86
2022/07/01 08:07:04;;;;;;;3.97;1.00;;;;;;;13.71;83.34;101565.19;6246231;23;20008;-87
2022/07/01 08:09:31;;;;;;;5.23;1.10;;;;;;;13.78;82.61;101582.34;6219643;23;20430;-84
2022/07/01 08:11:57;;;;;;;6.00;1.10;;;;;;;13.82;85.42;101581.69;6194796;23;20066;-83
2022/07/01 08:14:23;;;;;;;3.90;1.03;;;;;;;13.87;84.52;101581.03;6219929;23;20012;-84
2022/07/01 08:16:48;;;;;;;3.17;1.35;;;;;;;13.98;83.98;101580.34;6194751;23;20016;-82
2022/07/01 08:19:14;;;;;;;2.97;1.20;;;;;;;14.06;84.33;101589.31;6219691;23;20387;-83
2022/07/01 08:21:39;;;;;;;6.13;1.10;;;;;;;14.16;83.82;101593.22;6195594;23;20012;-85
2022/07/01 08:24:05;;;;;;;3.50;1.30;;;;;;;14.23;80.57;101598.63;6194272;23;20331;-84
2022/07/01 08:26:30;;;;;;;4.43;0.80;;;;;;;14.25;79.51;101588.34;6219598;23;20008;-84
2022/07/01 08:28:56;;;;;;;5.85;1.15;;;;;;;14.30;80.67;101615.78;6194191;23;20011;-84
2022/07/01 08:31:21;;;;;;;5.60;1.33;;;;;;;14.35;81.87;101596.88;6194657;23;20078;-84
2022/07/01 08:33:47;;;;;;;4.03;1.50;;;;;;;14.56;77.92;101608.44;6219528;23;20083;-83
2022/07/01 08:36:13;;;;;;;3.55;0.90;;;;;;;14.65;78.57;101596.22;6194243;23;20016;-84
2022/07/01 08:38:39;;;;;;;3.57;1.03;;;;;;;14.70;79.94;101590.94;6194544;23;20087;-84
2022/07/01 08:41:05;;;;;;;5.68;1.13;;;;;;;14.82;79.75;101596.47;6219122;23;20091;-84
2022/07/01 08:43:31;;;;;;;5.15;1.42;;;;;;;14.80;79.36;101595.03;6220467;23;20089;-84
2022/07/01 08:46:01;;;;;;;3.73;1.20;;;;;;;14.91;80.49;101606.03;6219722;23;20367;-84
2022/07/01 08:48:27;;;;;;;5.43;1.33;;;;;;;15.11;80.77;101605.00;6219256;23;20019;-84
2022/07/01 08:50:52;;;;;;;6.50;1.10;;;;;;;15.21;77.62;101610.75;6194853;23;20082;-84
2022/07/01 08:53:18;;;;;;;6.50;1.30;;;;;;;15.20;75.36;101609.09;6219165;23;20410;-84
2022/07/01 08:58:28;;;;;;;3.17;1.10;;;;;;;15.35;74.33;101622.38;6223881;23;20073;-84
2022/07/01 09:01:12;;;;;;;4.32;1.20;;;;;;;15.53;76.75;101627.00;6219317;23;20015;-84
2022/07/01 09:03:37;;;;;;;6.03;1.80;;;;;;;15.65;74.60;101640.75;6219692;23;20004;-83
2022/07/01 09:06:10;;;;;;;3.87;1.40;;;;;;;15.77;74.84;101636.16;6219211;23;20079;-84
2022/07/01 09:08:38;;;;;;;3.92;1.20;;;;;;;15.79;71.81;101638.69;6246319;23;20008;-84
2022/07/01 09:11:18;;;;;;;5.07;1.40;;;;;;;15.90;73.85;101634.31;6219173;23;20015;-84
2022/07/01 09:13:45;;;;;;;3.47;1.10;;;;;;;16.07;71.59;101631.78;6218955;23;20343;-84
2022/07/01 09:16:16;;;;;;;6.85;1.48;;;;;;;16.27;73.25;101634.22;6219195;23;20008;-84
2022/07/01 09:18:59;;;;;;;3.92;1.50;;;;;;;16.29;73.49;101615.66;6194320;23;20028;-84
2022/07/01 09:21:29;;;;;;;4.60;1.35;;;;;;;16.29;72.84;101618.41;6221036;23;20438;-85
2022/07/01 09:23:55;;;;;;;4.07;1.17;;;;;;;16.29;71.81;101615.66;6221033;23;20015;-84
2022/07/01 09:26:21;;;;;;;9.52;1.50;;;;;;;16.31;71.64;101630.78;6220516;23;20075;-84
2022/07/01 09:28:55;;;;;;;6.28;1.50;;;;;;;16.52;71.41;101631.31;6195592;23;20012;-84
2022/07/01 09:31:21;;;;;;;3.77;1.30;;;;;;;16.82;70.23;101633.09;6220963;23;20061;-84
2022/07/01 09:34:02;;;;;;;3.63;1.30;;;;;;;17.03;69.51;101639.91;6247512;23;20031;-84
2022/07/01 09:36:28;;;;;;;4.80;1.60;;;;;;;17.15;66.60;101639.91;6247633;23;20031;-84
2022/07/01 09:38:53;;;;;;;3.10;1.43;;;;;;;17.12;67.04;101643.13;6221763;23;20012;-84
2022/07/01 09:41:23;;;;;;;4.27;1.37;;;;;;;17.30;68.65;101642.16;6221284;23;20387;-84
2022/07/01 09:43:48;;;;;;;3.75;1.20;;;;;;;17.61;66.85;101638.16;6221308;23;20004;-84
2022/07/01 09:46:13;;;;;;;5.77;1.67;;;;;;;17.89;64.33;101641.97;6221009;23;20012;-84
2022/07/01 09:48:39;;;;;;;3.45;1.58;;;;;;;18.01;64.24;101644.69;6195271;23;20393;-84
2022/07/01 09:51:07;;;;;;;7.83;1.30;;;;;;;17.90;64.33;101640.94;6220592;23;20046;-84
2022/07/01 09:53:33;;;;;;;4.65;1.42;;;;;;;17.77;62.18;101646.69;6220682;23;20091;-84
2022/07/01 09:55:59;;;;;;;2.10;1.00;;;;;;;17.49;61.74;101645.56;6247350;23;20184;-85
2022/07/01 09:58:25;;;;;;;7.20;1.20;;;;;;;17.53;62.65;101644.84;6221073;23;20012;-85
2022/07/01 10:00:54;;;;;;;3.97;1.23;;;;;;;17.75;62.34;101646.94;6220962;23;20379;-85
2022/07/01 10:03:21;;;;;;;4.18;0.95;;;;;;;17.68;58.13;101636.06;6220930;23;20083;-84
2022/07/01 10:06:06;;;;;;;4.63;1.20;;;;;;;17.65;60.82;101653.03;6220674;23;20051;-85
2022/07/01 10:08:57;;;;;;;5.50;0.95;;;;;;;17.85;60.08;101646.31;6220319;23;20008;-84
2022/07/01 10:11:38;;;;;;;2.67;0.77;;;;;;;18.12;60.80;101657.53;6247240;23;20030;-85
2022/07/01 10:14:04;;;;;;;4.85;1.02;;;;;;;18.27;60.41;101646.00;6220366;23;20062;-84
2022/07/01 10:16:31;;;;;;;4.47;1.25;;;;;;;18.37;57.53;101659.91;6247456;23;20039;-84
2022/07/01 10:18:57;;;;;;;5.40;1.00;;;;;;;18.33;56.95;101658.72;6220208;23;20055;-84
2022/07/01 10:21:30;;;;;;;2.13;0.70;;;;;;;18.55;58.39;101655.25;6221329;23;20365;-85
2022/07/01 10:24:18;;;;;;;2.75;0.80;;;;;;;18.81;56.62;101661.16;6195544;23;20038;-84
2022/07/01 10:26:45;;;;;;;8.23;0.90;;;;;;;18.89;54.36;101664.34;6220936;23;20015;-84
2022/07/01 10:29:34;;;;;;;3.90;0.90;;;;;;;19.02;57.23;101681.59;6195212;23;20434;-84
2022/07/01 10:32:08;;;;;;;5.45;1.05;;;;;;;19.15;55.08;101670.25;6247461;23;20000;-84
2022/07/01 10:34:36;;;;;;;2.83;1.00;;;;;;;19.02;56.01;101681.59;6220696;23;20000;-84
2022/07/01 10:37:08;;;;;;;4.82;1.52;;;;;;;18.97;57.13;101690.63;6247196;23;20091;-84
2022/07/01 10:39:57;;;;;;;3.35;0.93;;;;;;;18.97;57.70;101685.13;6247453;23;20441;-84
2022/07/01 10:42:31;;;;;;;2.13;0.87;;;;;;;19.15;56.10;101677.66;6220158;23;20004;-84
2022/07/01 10:45:17;;;;;;;3.05;0.80;;;;;;;19.58;56.45;101676.88;6247891;23;20049;-84
2022/07/01 10:47:43;;;;;;;5.35;1.00;;;;;;;19.60;53.80;101682.13;6220155;23;20047;-84
2022/07/01 10:50:18;;;;;;;4.25;1.00;;;;;;;19.80;54.02;101673.31;6195354;23;20008;-84
2022/07/01 10:53:04;;;;;;;3.15;0.85;;;;;;;19.79;54.96;101666.97;6195746;23;20374;-84
2022/07/01 10:55:41;;;;;;;3.50;0.73;;;;;;;19.88;51.27;101663.75;6220246;23;20000;-85
2022/07/01 10:58:07;;;;;;;3.92;1.05;;;;;;;19.75;51.62;101665.81;6220519;23;20442;-85
2022/07/01 11:00:35;;;;;;;2.40;0.90;;;;;;;19.48;51.67;101673.97;6170439;23;20004;-85
2022/07/01 11:03:23;;;;;;;2.88;1.00;;;;;;;19.54;53.43;101664.69;6220027;23;20004;-85
2022/07/01 11:05:52;;;;;;;3.80;1.00;;;;;;;20.00;51.94;101658.09;6246512;23;20113;-85
2022/07/01 11:08:17;;;;;;;2.30;0.73;;;;;;;20.37;52.24;101663.69;6246937;23;20004;-86
2022/07/01 11:10:43;;;;;;;4.57;0.90;;;;;;;20.92;50.63;101658.94;6194611;23;20377;-86
2022/07/01 11:13:13;;;;;;;4.10;0.80;;;;;;;21.29;49.23;101652.53;6195247;23;20436;-85
2022/07/01 11:15:39;;;;;;;3.60;0.88;;;;;;;21.47;48.97;101651.22;6220279;23;20434;-85
2022/07/01 11:18:05;;;;;;;5.90;1.03;;;;;;;21.15;48.20;101646.66;6195506;23;20015;-85
2022/07/01 11:20:32;;;;;;;5.68;1.40;;;;;;;21.31;48.68;101646.75;6195273;23;20008;-85